createdAt,value
2022-08-23T00:00:35.047Z,9.70
2022-08-23T00:01:35.028Z,9.50
2022-08-23T00:02:35.082Z,9.70
2022-08-23T00:03:35.022Z,10.50
2022-08-23T00:04:35.390Z,10.50
2022-08-23T00:05:34.936Z,10.80
2022-08-23T00:06:34.950Z,9.90
2022-08-23T00:07:38.235Z,11.00
2022-08-23T00:08:34.957Z,9.90
2022-08-23T00:09:34.976Z,10.50
2022-08-23T00:10:34.919Z,9.90
2022-08-23T00:11:34.932Z,9.80
2022-08-23T00:12:34.926Z,9.80
2022-08-23T00:13:47.934Z,10.50
2022-08-23T00:14:34.876Z,10.10
2022-08-23T00:15:34.881Z,10.00
2022-08-23T00:16:34.833Z,10.30
2022-08-23T00:17:35.255Z,10.90
2022-08-23T00:18:34.808Z,11.40
2022-08-23T00:19:34.812Z,10.80
2022-08-23T00:20:34.839Z,10.80
2022-08-23T00:21:35.003Z,10.70
2022-08-23T00:22:34.781Z,10.50
2022-08-23T00:23:34.778Z,10.60
2022-08-23T00:24:38.016Z,11.00
2022-08-23T00:25:34.785Z,11.40
2022-08-23T00:26:34.742Z,11.20
2022-08-23T00:27:34.758Z,11.60
2022-08-23T00:28:34.738Z,11.40
2022-08-23T00:29:34.729Z,11.20
2022-08-23T00:30:34.716Z,11.10
2022-08-23T00:31:34.689Z,10.40
2022-08-23T00:32:34.670Z,10.50
2022-08-23T00:33:34.670Z,10.10
2022-08-23T00:34:34.687Z,10.60
2022-08-23T00:35:34.655Z,10.40
2022-08-23T00:36:34.608Z,10.40
2022-08-23T00:37:34.621Z,10.40
2022-08-23T00:38:35.242Z,10.10
2022-08-23T00:39:34.607Z,9.90
2022-08-23T00:40:34.619Z,10.00
2022-08-23T00:41:34.603Z,9.50
2022-08-23T00:42:34.561Z,9.10
2022-08-23T00:43:34.506Z,8.70
2022-08-23T00:44:34.550Z,8.80
2022-08-23T00:45:34.552Z,8.50
2022-08-23T00:46:34.482Z,8.20
2022-08-23T00:47:34.490Z,7.80
2022-08-23T00:48:34.519Z,8.30
2022-08-23T00:49:34.476Z,7.60
2022-08-23T00:50:34.554Z,7.80
2022-08-23T00:51:43.093Z,6.80
2022-08-23T00:52:34.448Z,6.30
2022-08-23T00:53:34.411Z,6.60
2022-08-23T00:54:34.431Z,6.10
2022-08-23T00:55:34.455Z,5.80
2022-08-23T00:56:34.404Z,5.70
2022-08-23T00:57:34.383Z,5.60
2022-08-23T00:58:34.343Z,5.50
2022-08-23T00:59:34.321Z,5.50
2022-08-23T01:00:34.378Z,5.70
2022-08-23T01:01:34.372Z,5.50
2022-08-23T01:02:34.284Z,5.40
2022-08-23T01:03:38.673Z,5.30
2022-08-23T01:04:34.304Z,5.30
2022-08-23T01:05:34.307Z,4.70
2022-08-23T01:06:34.227Z,5.10
2022-08-23T01:07:34.245Z,5.00
2022-08-23T01:08:34.245Z,4.50
2022-08-23T01:09:34.275Z,4.70
2022-08-23T01:10:34.222Z,4.70
2022-08-23T01:11:34.213Z,4.50
2022-08-23T01:12:34.170Z,3.90
2022-08-23T01:13:34.210Z,3.80
2022-08-23T01:14:34.209Z,3.70
2022-08-23T01:15:34.230Z,4.30
2022-08-23T01:16:34.162Z,3.70
2022-08-23T01:17:34.151Z,3.70
2022-08-23T01:18:34.108Z,3.90
2022-08-23T01:19:34.149Z,3.50
2022-08-23T01:20:34.136Z,4.10
2022-08-23T01:21:34.101Z,4.10
2022-08-23T01:22:34.067Z,3.90
2022-08-23T01:23:34.077Z,4.60
2022-08-23T01:24:49.792Z,3.80
2022-08-23T01:25:34.051Z,4.10
2022-08-23T01:26:34.039Z,4.00
2022-08-23T01:27:34.030Z,4.30
2022-08-23T01:28:34.042Z,4.20
2022-08-23T01:29:34.515Z,4.90
2022-08-23T01:30:33.976Z,4.30
2022-08-23T01:31:33.991Z,4.60
2022-08-23T01:32:33.956Z,4.70
2022-08-23T01:33:33.982Z,4.60
2022-08-23T01:34:35.159Z,4.80
2022-08-23T01:35:33.953Z,4.60
2022-08-23T01:36:33.955Z,5.00
2022-08-23T01:37:33.959Z,5.30
2022-08-23T01:38:33.901Z,4.90
2022-08-23T01:39:33.885Z,5.30
2022-08-23T01:40:33.860Z,4.90
2022-08-23T01:41:33.871Z,5.40
2022-08-23T01:42:33.808Z,5.10
2022-08-23T01:43:33.849Z,5.30
2022-08-23T01:44:33.801Z,5.10
2022-08-23T01:45:33.811Z,5.30
2022-08-23T01:46:33.786Z,5.30
2022-08-23T01:47:33.836Z,5.70
2022-08-23T01:48:33.737Z,5.40
2022-08-23T01:49:34.399Z,5.70
2022-08-23T01:50:33.804Z,5.70
2022-08-23T01:51:33.787Z,5.80
2022-08-23T01:52:33.735Z,5.90
2022-08-23T01:53:33.736Z,5.80
2022-08-23T01:54:33.689Z,5.80
2022-08-23T01:55:34.425Z,6.30
2022-08-23T01:56:39.201Z,5.60
2022-08-23T01:57:33.711Z,5.80
2022-08-23T01:58:33.646Z,5.50
2022-08-23T01:59:34.321Z,5.90
2022-08-23T02:00:33.616Z,5.90
2022-08-23T02:01:33.635Z,5.00
2022-08-23T02:02:33.654Z,5.50
2022-08-23T02:03:33.638Z,5.50
2022-08-23T02:04:33.545Z,5.60
2022-08-23T02:05:33.584Z,5.80
2022-08-23T02:06:33.542Z,5.10
2022-08-23T02:07:33.590Z,5.70
2022-08-23T02:08:33.539Z,5.70
2022-08-23T02:09:33.584Z,5.30
2022-08-23T02:10:33.561Z,5.70
2022-08-23T02:11:33.517Z,6.00
2022-08-23T02:12:33.502Z,6.10
2022-08-23T02:13:33.496Z,5.30
2022-08-23T02:14:33.482Z,5.00
2022-08-23T02:15:33.518Z,4.90
2022-08-23T02:16:34.037Z,5.20
2022-08-23T02:17:33.468Z,5.40
2022-08-23T02:18:33.426Z,5.30
2022-08-23T02:19:34.643Z,5.60
2022-08-23T02:20:33.410Z,5.10
2022-08-23T02:21:33.418Z,4.40
2022-08-23T02:22:33.385Z,5.60
2022-08-23T02:23:33.379Z,5.20
2022-08-23T02:24:33.363Z,5.00
2022-08-23T02:25:33.340Z,5.30
2022-08-23T02:26:33.331Z,4.90
2022-08-23T02:27:33.399Z,5.10
2022-08-23T02:28:33.333Z,4.90
2022-08-23T02:29:33.330Z,5.40
2022-08-23T02:30:33.295Z,5.10
2022-08-23T02:31:33.268Z,4.70
2022-08-23T02:32:33.264Z,4.60
2022-08-23T02:33:33.249Z,4.80
2022-08-23T02:34:33.233Z,4.80
2022-08-23T02:35:33.294Z,4.90
2022-08-23T02:36:33.228Z,4.60
2022-08-23T02:37:33.245Z,4.50
2022-08-23T02:38:33.184Z,4.30
2022-08-23T02:39:33.195Z,4.80
2022-08-23T02:40:33.207Z,4.70
2022-08-23T02:41:33.186Z,4.80
2022-08-23T02:42:33.168Z,4.80
2022-08-23T02:43:33.111Z,4.70
2022-08-23T02:44:33.160Z,4.70
2022-08-23T02:45:33.156Z,5.00
2022-08-23T02:46:33.106Z,5.10
2022-08-23T02:47:33.099Z,4.90
2022-08-23T02:48:33.115Z,5.40
2022-08-23T02:49:33.088Z,5.40
2022-08-23T02:50:33.122Z,5.10
2022-08-23T02:51:33.096Z,5.10
2022-08-23T02:52:33.041Z,4.90
2022-08-23T02:53:32.991Z,5.40
2022-08-23T02:54:33.010Z,5.50
2022-08-23T02:55:33.014Z,6.30
2022-08-23T02:56:33.013Z,5.90
2022-08-23T02:57:33.082Z,5.70
2022-08-23T02:58:32.939Z,5.80
2022-08-23T02:59:32.960Z,6.10
2022-08-23T03:00:32.973Z,6.00
2022-08-23T03:01:32.928Z,5.50
2022-08-23T03:02:33.005Z,5.40
2022-08-23T03:03:32.952Z,6.10
2022-08-23T03:04:32.907Z,6.20
2022-08-23T03:05:32.851Z,6.50
2022-08-23T03:06:32.916Z,5.90
2022-08-23T03:07:32.871Z,6.00
2022-08-23T03:08:32.840Z,6.30
2022-08-23T03:09:32.848Z,6.10
2022-08-23T03:10:32.808Z,6.50
2022-08-23T03:11:32.847Z,6.50
2022-08-23T03:12:32.825Z,7.00
2022-08-23T03:13:32.846Z,6.30
2022-08-23T03:14:32.810Z,6.90
2022-08-23T03:15:32.792Z,6.90
2022-08-23T03:16:32.806Z,7.20
2022-08-23T03:17:32.768Z,7.20
2022-08-23T03:18:32.787Z,7.20
2022-08-23T03:19:32.760Z,7.50
2022-08-23T03:20:32.707Z,8.00
2022-08-23T03:21:32.737Z,7.60
2022-08-23T03:22:32.724Z,7.80
2022-08-23T03:23:32.694Z,7.80
2022-08-23T03:24:32.654Z,7.10
2022-08-23T03:25:32.664Z,6.80
2022-08-23T03:26:32.751Z,7.60
2022-08-23T03:27:32.713Z,7.70
2022-08-23T03:28:32.680Z,7.90
2022-08-23T03:29:32.663Z,7.70
2022-08-23T03:30:32.595Z,8.00
2022-08-23T03:31:32.606Z,8.30
2022-08-23T03:32:32.603Z,7.90
2022-08-23T03:33:32.628Z,8.10
2022-08-23T03:34:32.586Z,8.10
2022-08-23T03:35:32.606Z,8.20
2022-08-23T03:36:32.525Z,8.90
2022-08-23T03:37:32.509Z,8.90
2022-08-23T03:38:32.563Z,9.10
2022-08-23T03:39:32.548Z,8.50
2022-08-23T03:40:32.473Z,9.10
2022-08-23T03:41:32.491Z,8.90
2022-08-23T03:42:32.471Z,8.20
2022-08-23T03:43:32.434Z,7.90
2022-08-23T03:44:32.459Z,8.40
2022-08-23T03:45:32.441Z,7.90
2022-08-23T03:46:34.208Z,7.80
2022-08-23T03:47:32.446Z,8.10
2022-08-23T03:48:32.421Z,7.90
2022-08-23T03:49:32.387Z,8.00
2022-08-23T03:50:32.364Z,8.00
2022-08-23T04:14:56.358Z,8.90
2022-08-23T04:15:36.331Z,9.30
2022-08-23T04:16:36.249Z,9.00
2022-08-23T04:17:36.257Z,9.50
2022-08-23T04:18:36.259Z,8.90
2022-08-23T04:19:36.241Z,8.90
2022-08-23T04:20:36.277Z,9.60
2022-08-23T04:21:36.241Z,9.00
2022-08-23T04:22:36.220Z,9.90
2022-08-23T04:23:36.172Z,10.30
2022-08-23T04:24:36.158Z,9.50
2022-08-23T04:25:36.152Z,9.20
2022-08-23T04:26:36.173Z,10.20
2022-08-23T04:27:36.794Z,10.20
2022-08-23T04:28:36.109Z,10.60
2022-08-23T04:29:36.085Z,10.40
2022-08-23T04:30:36.127Z,11.00
2022-08-23T04:31:36.087Z,11.10
2022-08-23T04:32:36.037Z,10.60
2022-08-23T04:33:36.053Z,10.60
2022-08-23T04:34:36.105Z,10.30
2022-08-23T04:35:36.090Z,10.80
2022-08-23T04:36:36.046Z,9.90
2022-08-23T04:37:36.041Z,9.80
2022-08-23T04:38:36.019Z,8.90
2022-08-23T04:39:35.976Z,7.90
2022-08-23T04:40:36.000Z,7.50
2022-08-23T04:41:35.960Z,7.70
2022-08-23T04:42:35.952Z,7.50
2022-08-23T04:43:35.943Z,6.70
2022-08-23T04:44:35.990Z,6.90
2022-08-23T04:45:35.953Z,6.80
2022-08-23T04:46:35.890Z,6.60
2022-08-23T04:47:36.879Z,6.60
2022-08-23T04:48:35.916Z,6.60
2022-08-23T04:49:35.916Z,6.20
2022-08-23T04:50:35.894Z,6.20
2022-08-23T04:51:35.851Z,6.60
2022-08-23T04:52:36.649Z,6.40
2022-08-23T04:53:35.819Z,6.50
2022-08-23T04:54:35.859Z,6.50
2022-08-23T04:55:36.547Z,7.00
2022-08-23T04:56:35.799Z,6.60
2022-08-23T04:57:35.769Z,6.20
2022-08-23T04:58:35.812Z,6.30
2022-08-23T04:59:35.771Z,6.60
2022-08-23T05:00:35.793Z,6.60
2022-08-23T05:01:35.747Z,6.60
2022-08-23T05:02:35.751Z,6.00
2022-08-23T05:03:35.697Z,6.80
2022-08-23T05:04:35.704Z,6.90
2022-08-23T05:05:35.683Z,6.60
2022-08-23T05:06:35.670Z,5.90
2022-08-23T05:07:41.723Z,7.10
2022-08-23T05:08:35.700Z,7.60
2022-08-23T05:09:35.629Z,6.80
2022-08-23T05:10:35.656Z,7.00
2022-08-23T05:11:35.670Z,7.40
2022-08-23T05:12:35.605Z,7.00
2022-08-23T05:13:35.581Z,6.90
2022-08-23T05:14:35.639Z,7.10
2022-08-23T05:15:35.535Z,7.80
2022-08-23T05:16:35.561Z,7.00
2022-08-23T05:17:35.563Z,6.80
2022-08-23T05:18:35.573Z,8.10
2022-08-23T05:19:35.494Z,7.30
2022-08-23T05:20:35.720Z,7.50
2022-08-23T05:21:35.504Z,7.30
2022-08-23T05:22:35.566Z,7.20
2022-08-23T05:23:35.477Z,7.30
2022-08-23T05:26:01.587Z,7.20
2022-08-23T05:26:33.274Z,7.30
2022-08-23T05:27:10.625Z,7.70
2022-08-23T05:28:07.292Z,6.70
2022-08-23T05:29:07.302Z,7.00
2022-08-23T05:30:07.269Z,6.80
2022-08-23T05:31:11.487Z,6.60
2022-08-23T05:32:07.259Z,6.80
2022-08-23T05:33:07.253Z,6.60
2022-08-23T05:34:07.258Z,6.40
2022-08-23T05:35:07.199Z,6.20
2022-08-23T05:36:07.197Z,6.70
2022-08-23T05:37:07.174Z,6.10
2022-08-23T05:38:07.163Z,5.90
2022-08-23T05:39:07.150Z,5.90
2022-08-23T05:40:07.198Z,5.60
2022-08-23T05:41:07.211Z,5.60
2022-08-23T05:42:07.103Z,6.40
2022-08-23T05:43:07.098Z,5.80
2022-08-23T05:44:07.057Z,5.70
2022-08-23T05:45:07.073Z,5.70
2022-08-23T05:46:07.119Z,5.80
2022-08-23T05:47:11.220Z,5.00
2022-08-23T05:48:07.076Z,5.40
2022-08-23T05:49:07.117Z,5.20
2022-08-23T05:50:07.081Z,5.20
2022-08-23T05:51:06.990Z,5.00
2022-08-23T05:52:07.021Z,4.90
2022-08-23T05:53:07.035Z,4.70
2022-08-23T05:54:07.009Z,4.60
2022-08-23T05:55:08.958Z,4.60
2022-08-23T05:56:06.923Z,4.20
2022-08-23T05:57:06.912Z,4.50
2022-08-23T05:58:06.923Z,4.50
2022-08-23T05:59:06.898Z,4.40
2022-08-23T06:00:06.875Z,4.00
2022-08-23T06:01:06.900Z,4.40
2022-08-23T06:02:06.867Z,4.70
2022-08-23T06:03:06.842Z,4.40
2022-08-23T06:04:06.897Z,4.90
2022-08-23T06:05:06.833Z,4.50
2022-08-23T06:06:06.780Z,4.00
2022-08-23T06:07:06.861Z,4.40
2022-08-23T06:08:06.850Z,4.60
2022-08-23T06:09:06.799Z,4.60
2022-08-23T06:10:06.769Z,4.40
2022-08-23T06:11:06.781Z,5.10
2022-08-23T06:12:06.789Z,5.60
2022-08-23T06:13:25.017Z,5.70
2022-08-23T06:14:06.881Z,5.50
2022-08-23T06:15:06.755Z,6.30
2022-08-23T06:16:14.938Z,6.00
2022-08-23T06:17:06.726Z,5.80
2022-08-23T06:18:06.728Z,5.90
2022-08-23T06:19:06.752Z,5.50
2022-08-23T06:20:06.752Z,5.60
2022-08-23T06:21:06.636Z,5.80
2022-08-23T06:22:06.677Z,5.70
2022-08-23T06:23:06.593Z,5.90
2022-08-23T06:24:06.664Z,5.60
2022-08-23T06:25:09.585Z,5.80
2022-08-23T06:26:06.601Z,6.10
2022-08-23T06:27:06.612Z,5.80
2022-08-23T06:28:06.608Z,6.30
2022-08-23T06:29:06.609Z,5.90
2022-08-23T06:30:06.581Z,6.50
2022-08-23T06:31:06.646Z,6.20
2022-08-23T06:32:28.617Z,6.80
2022-08-23T06:33:06.573Z,6.40
2022-08-23T06:34:06.613Z,6.10
2022-08-23T06:35:37.896Z,5.90
2022-08-23T06:36:08.654Z,5.80
2022-08-23T06:37:06.489Z,6.40
2022-08-23T06:38:06.482Z,7.10
2022-08-23T06:39:06.416Z,6.80
2022-08-23T06:40:06.530Z,7.20
2022-08-23T06:41:06.458Z,7.30
2022-08-23T06:42:17.641Z,7.40
2022-08-23T06:43:06.444Z,7.60
2022-08-23T06:44:06.423Z,7.40
2022-08-23T06:45:06.391Z,7.30
2022-08-23T06:46:06.386Z,7.30
2022-08-23T06:47:06.465Z,7.50
2022-08-23T06:48:07.088Z,7.90
2022-08-23T06:49:06.361Z,7.80
2022-08-23T06:50:06.332Z,7.80
2022-08-23T06:51:06.333Z,7.60
2022-08-23T06:52:06.321Z,8.20
2022-08-23T06:53:11.658Z,7.90
2022-08-23T06:54:06.318Z,7.60
2022-08-23T06:55:10.584Z,8.30
2022-08-23T06:56:06.277Z,7.90
2022-08-23T06:57:06.248Z,8.00
2022-08-23T06:58:06.307Z,8.10
2022-08-23T06:59:06.239Z,8.50
2022-08-23T07:00:06.204Z,8.50
2022-08-23T07:01:06.285Z,8.10
2022-08-23T07:02:06.275Z,7.50
2022-08-23T07:03:06.242Z,8.60
2022-08-23T07:04:06.201Z,7.40
2022-08-23T07:05:06.156Z,7.70
2022-08-23T07:06:06.161Z,7.40
2022-08-23T07:07:11.157Z,7.30
2022-08-23T07:08:06.177Z,7.40
2022-08-23T07:09:06.083Z,7.70
2022-08-23T07:10:06.966Z,7.40
2022-08-23T07:11:06.107Z,6.40
2022-08-23T07:12:06.108Z,6.80
2022-08-23T07:13:06.158Z,6.40
2022-08-23T07:20:57.782Z,6.90
2022-08-23T07:21:58.695Z,6.40
2022-08-23T07:22:58.713Z,6.80
2022-08-23T07:23:58.676Z,6.60
2022-08-23T07:24:58.631Z,6.70
2022-08-23T07:25:58.706Z,6.70
2022-08-23T07:26:58.660Z,6.50
2022-08-23T07:27:58.631Z,6.80
2022-08-23T07:28:58.655Z,6.50
2022-08-23T07:29:58.627Z,6.40
2022-08-23T07:30:58.601Z,6.80
2022-08-23T07:31:58.676Z,6.70
2022-08-23T07:32:58.644Z,6.50
2022-08-23T07:33:58.737Z,7.10
2022-08-23T07:34:58.554Z,8.00
2022-08-23T07:35:58.565Z,8.20
2022-08-23T07:36:58.582Z,8.10
2022-08-23T07:37:58.572Z,7.90
2022-08-23T07:38:58.489Z,7.70
2022-08-23T07:39:58.763Z,7.30
2022-08-23T07:40:58.480Z,7.50
2022-08-23T07:41:58.473Z,6.80
2022-08-23T07:42:58.518Z,7.30
2022-08-23T07:44:00.053Z,7.20
2022-08-23T07:44:58.417Z,6.90
2022-08-23T07:45:58.700Z,6.80
2022-08-23T07:46:58.460Z,7.20
2022-08-23T07:47:59.135Z,7.50
2022-08-23T07:48:58.365Z,7.50
2022-08-23T07:49:58.339Z,7.20
2022-08-23T07:50:58.528Z,7.20
2022-08-23T07:51:58.383Z,7.10
2022-08-23T07:52:58.356Z,7.00
2022-08-23T07:53:58.324Z,7.10
2022-08-23T07:54:58.341Z,7.00
2022-08-23T07:55:58.495Z,7.10
2022-08-23T07:56:58.319Z,7.00
2022-08-23T07:57:58.365Z,6.90
2022-08-23T07:58:58.275Z,6.80
2022-08-23T07:59:58.221Z,7.10
2022-08-23T08:00:58.254Z,6.90
2022-08-23T08:01:58.374Z,7.10
2022-08-23T08:02:58.306Z,6.70
2022-08-23T08:03:58.207Z,6.60
2022-08-23T08:04:58.147Z,7.40
2022-08-23T08:05:58.199Z,7.30
2022-08-23T08:07:17.765Z,7.00
2022-08-23T08:07:58.227Z,7.40
2022-08-23T08:08:58.159Z,7.30
2022-08-23T08:09:58.136Z,7.10
2022-08-23T08:10:58.146Z,7.10
2022-08-23T08:11:58.143Z,7.30
2022-08-23T08:12:58.101Z,7.20
2022-08-23T08:13:58.111Z,7.70
2022-08-23T08:14:58.089Z,7.30
2022-08-23T08:15:58.088Z,7.20
2022-08-23T08:16:58.658Z,7.20
2022-08-23T08:17:58.062Z,7.90
2022-08-23T08:18:58.043Z,7.20
2022-08-23T08:19:58.041Z,7.80
2022-08-23T08:20:58.056Z,7.90
2022-08-23T08:21:58.034Z,8.30
2022-08-23T08:22:59.052Z,8.20
2022-08-23T08:23:57.979Z,8.20
2022-08-23T08:24:57.992Z,7.90
2022-08-23T08:25:58.017Z,8.00
2022-08-23T08:26:57.931Z,8.20
2022-08-23T08:27:58.018Z,8.20
2022-08-23T08:28:58.023Z,8.00
2022-08-23T08:29:57.922Z,8.10
2022-08-23T08:30:58.006Z,8.20
2022-08-23T08:31:58.179Z,8.10
2022-08-23T08:32:57.935Z,8.40
2022-08-23T08:33:57.907Z,8.10
2022-08-23T08:34:59.988Z,8.30
2022-08-23T08:35:59.674Z,8.80
2022-08-23T08:36:58.408Z,8.30
2022-08-23T08:37:57.864Z,8.30
2022-08-23T08:39:00.865Z,8.30
2022-08-23T08:39:57.837Z,8.90
2022-08-23T08:40:57.801Z,8.80
2022-08-23T08:42:03.925Z,8.10
2022-08-23T08:42:57.799Z,7.90
2022-08-23T08:43:57.738Z,7.90
2022-08-23T08:44:57.731Z,8.40
2022-08-23T08:45:59.044Z,8.10
2022-08-23T08:46:57.714Z,8.40
2022-08-23T08:47:57.756Z,8.80
2022-08-23T08:48:57.696Z,7.80
2022-08-23T08:49:57.712Z,8.60
2022-08-23T08:50:57.644Z,8.60
2022-08-23T08:52:03.851Z,7.80
2022-08-23T08:52:57.664Z,7.50
2022-08-23T08:53:57.624Z,7.20
2022-08-23T08:54:57.642Z,7.00
2022-08-23T08:55:57.631Z,6.90
2022-08-23T08:56:57.644Z,7.10
2022-08-23T08:57:57.691Z,7.40
2022-08-23T08:58:57.558Z,7.00
2022-08-23T08:59:57.560Z,7.10
2022-08-23T09:00:57.562Z,6.70
2022-08-23T09:01:57.626Z,6.70
2022-08-23T09:02:57.628Z,7.10
2022-08-23T09:03:58.188Z,6.70
2022-08-23T09:04:57.479Z,7.10
2022-08-23T09:05:57.519Z,6.50
2022-08-23T09:06:57.487Z,6.10
2022-08-23T09:07:57.572Z,6.60
2022-08-23T09:08:57.465Z,6.30
2022-08-23T09:09:57.475Z,5.90
2022-08-23T09:10:58.653Z,6.30
2022-08-23T09:11:57.460Z,6.30
2022-08-23T09:12:57.388Z,6.60
2022-08-23T09:13:57.431Z,6.60
2022-08-23T09:14:57.389Z,5.90
2022-08-23T09:15:57.445Z,6.30
2022-08-23T09:16:57.374Z,6.00
2022-08-23T09:17:57.461Z,6.30
2022-08-23T09:18:57.418Z,6.20
2022-08-23T09:19:58.067Z,6.20
2022-08-23T09:20:57.315Z,6.20
2022-08-23T09:21:57.339Z,6.60
2022-08-23T09:22:57.363Z,5.60
2022-08-23T09:24:00.977Z,5.90
2022-08-23T09:24:57.295Z,5.70
2022-08-23T09:26:01.239Z,5.50
2022-08-23T09:26:57.271Z,5.30
2022-08-23T09:27:57.390Z,5.30
2022-08-23T09:28:57.274Z,5.50
2022-08-23T09:29:57.237Z,5.50
2022-08-23T09:30:57.229Z,4.90
2022-08-23T09:31:58.237Z,5.60
2022-08-23T09:32:57.188Z,5.00
2022-08-23T09:33:57.214Z,5.40
2022-08-23T09:34:57.204Z,5.30
2022-08-23T09:35:57.144Z,5.40
2022-08-23T09:36:57.182Z,5.00
2022-08-23T09:37:57.274Z,5.10
2022-08-23T09:38:57.142Z,5.20
2022-08-23T09:39:57.314Z,5.30
2022-08-23T09:40:57.098Z,4.80
2022-08-23T09:41:57.078Z,5.60
2022-08-23T09:42:57.114Z,5.40
2022-08-23T09:43:57.060Z,4.80
2022-08-23T09:44:57.074Z,5.30
2022-08-23T09:45:57.097Z,4.80
2022-08-23T09:46:57.078Z,4.80
2022-08-23T09:47:57.083Z,4.80
2022-08-23T09:48:57.010Z,4.60
2022-08-23T09:49:57.005Z,4.50
2022-08-23T09:50:57.006Z,4.40
2022-08-23T09:51:57.016Z,4.80
2022-08-23T09:52:57.700Z,4.20
2022-08-23T09:53:56.927Z,4.50
2022-08-23T09:54:56.958Z,4.60
2022-08-23T09:55:56.935Z,4.30
2022-08-23T09:56:56.871Z,4.50
2022-08-23T09:57:56.911Z,4.50
2022-08-23T09:58:56.918Z,4.70
2022-08-23T09:59:56.838Z,4.90
2022-08-23T10:00:56.839Z,5.10
2022-08-23T10:01:56.971Z,5.30
2022-08-23T10:02:56.880Z,5.20
2022-08-23T10:03:56.868Z,5.30
2022-08-23T10:04:56.970Z,5.10
2022-08-23T10:05:56.793Z,4.80
2022-08-23T10:06:56.813Z,4.60
2022-08-23T10:07:57.136Z,5.10
2022-08-23T10:08:56.792Z,4.90
2022-08-23T10:09:56.827Z,5.70
2022-08-23T10:10:56.748Z,5.70
2022-08-23T10:11:56.712Z,5.20
2022-08-23T10:12:56.756Z,5.80
2022-08-23T10:13:56.749Z,5.00
2022-08-23T10:14:56.724Z,5.20
2022-08-23T10:15:56.757Z,4.90
2022-08-23T10:16:56.691Z,5.30
2022-08-23T10:17:56.669Z,5.00
2022-08-23T10:18:56.683Z,5.60
2022-08-23T10:19:56.668Z,5.20
2022-08-23T10:20:56.654Z,5.50
2022-08-23T10:21:56.656Z,4.80
2022-08-23T10:22:56.664Z,5.10
2022-08-23T10:23:56.658Z,5.30
2022-08-23T10:24:56.607Z,5.50
2022-08-23T10:25:57.274Z,5.50
2022-08-23T10:26:56.579Z,6.10
2022-08-23T10:27:56.681Z,6.00
2022-08-23T10:28:56.548Z,5.40
2022-08-23T10:29:56.517Z,5.50
2022-08-23T10:30:56.584Z,5.70
2022-08-23T10:31:59.140Z,4.90
2022-08-23T10:32:56.512Z,5.70
2022-08-23T10:33:56.521Z,5.40
2022-08-23T10:34:56.537Z,5.80
2022-08-23T10:35:56.483Z,5.90
2022-08-23T10:36:56.467Z,6.70
2022-08-23T10:37:56.451Z,6.00
2022-08-23T10:38:56.431Z,6.10
2022-08-23T10:40:00.265Z,6.40
2022-08-23T10:40:56.421Z,6.40
2022-08-23T10:41:56.375Z,6.30
2022-08-23T10:42:56.429Z,6.50
2022-08-23T10:43:56.406Z,6.30
2022-08-23T10:44:56.401Z,6.60
2022-08-23T10:46:00.225Z,6.60
2022-08-23T10:46:56.352Z,6.20
2022-08-23T10:47:56.453Z,6.50
2022-08-23T10:48:56.336Z,7.20
2022-08-23T10:49:56.324Z,7.00
2022-08-23T10:50:56.427Z,6.90
2022-08-23T10:51:56.305Z,6.90
2022-08-23T10:52:56.283Z,7.00
2022-08-23T10:53:56.248Z,6.90
2022-08-23T10:54:56.271Z,7.20
2022-08-23T10:55:56.297Z,7.20
2022-08-23T10:56:56.219Z,6.70
2022-08-23T10:57:56.283Z,7.30
2022-08-23T10:58:56.238Z,7.70
2022-08-23T10:59:56.204Z,8.40
2022-08-23T11:00:56.191Z,8.00
2022-08-23T11:01:56.235Z,8.00
2022-08-23T11:02:56.284Z,9.00
2022-08-23T11:03:56.186Z,8.10
2022-08-23T11:04:56.153Z,7.80
2022-08-23T11:05:56.140Z,8.40
2022-08-23T11:06:56.116Z,8.90
2022-08-23T11:07:56.168Z,8.70
2022-08-23T11:08:56.082Z,8.70
2022-08-23T11:09:56.068Z,8.90
2022-08-23T11:10:57.082Z,8.70
2022-08-23T11:11:56.607Z,9.40
2022-08-23T11:12:56.676Z,10.10
2022-08-23T11:13:56.049Z,10.00
2022-08-23T11:14:56.022Z,10.10
2022-08-23T11:15:56.037Z,9.90
2022-08-23T11:16:55.963Z,10.30
2022-08-23T11:17:56.821Z,10.30
2022-08-23T11:18:55.985Z,10.30
2022-08-23T11:19:55.956Z,10.70
2022-08-23T11:20:55.954Z,10.40
2022-08-23T11:21:55.965Z,10.10
2022-08-23T11:22:55.897Z,9.70
2022-08-23T11:23:55.941Z,10.60
2022-08-23T11:24:55.905Z,10.10
2022-08-23T11:25:55.934Z,9.90
2022-08-23T11:26:55.864Z,10.60
2022-08-23T11:27:55.939Z,10.30
2022-08-23T11:28:55.862Z,10.80
2022-08-23T11:29:55.859Z,10.70
2022-08-23T11:30:55.888Z,10.20
2022-08-23T11:31:55.826Z,10.00
2022-08-23T11:32:56.511Z,9.90
2022-08-23T11:33:55.799Z,10.80
2022-08-23T11:34:55.810Z,9.60
2022-08-23T11:35:56.606Z,10.00
2022-08-23T11:36:55.785Z,10.10
2022-08-23T11:37:55.739Z,9.60
2022-08-23T11:38:55.745Z,10.40
2022-08-23T11:39:55.915Z,9.60
2022-08-23T11:40:55.737Z,10.00
2022-08-23T11:41:55.740Z,9.20
2022-08-23T11:42:55.718Z,9.10
2022-08-23T11:43:55.958Z,8.90
2022-08-23T11:44:56.428Z,9.40
2022-08-23T11:45:55.736Z,9.20
2022-08-23T11:46:55.663Z,9.20
2022-08-23T11:47:55.755Z,9.70
2022-08-23T11:48:55.610Z,9.10
2022-08-23T11:49:55.664Z,9.10
2022-08-23T11:50:58.271Z,9.20
2022-08-23T11:52:04.692Z,8.70
2022-08-23T11:52:55.619Z,10.50
2022-08-23T11:53:55.611Z,9.40
2022-08-23T11:54:55.564Z,9.70
2022-08-23T11:55:55.582Z,9.70
2022-08-23T11:56:55.542Z,8.90
2022-08-23T11:57:55.551Z,8.00
2022-08-23T11:58:55.531Z,7.20
2022-08-23T11:59:55.499Z,7.80
2022-08-23T12:00:55.493Z,7.90
2022-08-23T12:01:55.484Z,7.20
2022-08-23T12:02:57.438Z,7.90
2022-08-23T12:03:57.204Z,8.40
2022-08-23T12:04:55.453Z,8.60
2022-08-23T12:05:55.441Z,7.60
2022-08-23T12:06:55.435Z,9.40
2022-08-23T12:07:56.327Z,7.70
2022-08-23T12:08:55.440Z,8.10
2022-08-23T12:09:55.402Z,7.80
2022-08-23T12:10:55.418Z,8.00
2022-08-23T12:11:55.425Z,8.00
2022-08-23T12:12:55.407Z,8.20
2022-08-23T12:13:56.147Z,7.90
2022-08-23T12:14:55.345Z,9.20
2022-08-23T12:15:55.377Z,8.00
2022-08-23T12:16:56.817Z,15.40
2022-08-23T12:17:55.342Z,10.60
2022-08-23T12:18:55.325Z,10.80
2022-08-23T12:19:56.234Z,9.00
2022-08-23T12:20:55.269Z,8.30
2022-08-23T12:21:55.304Z,8.70
2022-08-23T12:22:55.263Z,7.70
2022-08-23T12:23:55.285Z,8.50
2022-08-23T12:24:55.272Z,9.30
2022-08-23T12:25:55.270Z,8.70
2022-08-23T12:26:55.198Z,8.40
2022-08-23T12:27:55.313Z,9.40
2022-08-23T12:28:55.209Z,8.40
2022-08-23T12:29:55.188Z,8.40
2022-08-23T12:30:55.210Z,9.60
2022-08-23T12:31:55.216Z,8.10
2022-08-23T12:32:55.154Z,9.30
2022-08-23T12:33:55.197Z,8.60
2022-08-23T12:34:55.135Z,9.30
2022-08-23T12:35:55.126Z,8.10
2022-08-23T12:36:55.093Z,9.70
2022-08-23T12:37:55.121Z,8.60
2022-08-23T12:38:55.152Z,9.10
2022-08-23T12:39:55.292Z,8.90
2022-08-23T12:40:55.065Z,8.90
2022-08-23T12:41:55.056Z,9.10
2022-08-23T12:42:55.025Z,9.40
2022-08-23T12:43:55.048Z,10.00
2022-08-23T12:44:55.019Z,10.40
2022-08-23T12:45:55.089Z,10.60
2022-08-23T12:46:54.984Z,10.90
2022-08-23T12:47:54.991Z,9.70
2022-08-23T12:48:54.985Z,10.00
2022-08-23T12:49:54.954Z,10.80
2022-08-23T12:50:54.940Z,10.60
2022-08-23T12:51:54.930Z,10.50
2022-08-23T12:52:54.968Z,10.10
2022-08-23T12:53:54.929Z,10.50
2022-08-23T12:54:54.931Z,10.90
2022-08-23T12:55:54.897Z,10.40
2022-08-23T12:56:54.902Z,10.40
2022-08-23T12:57:54.911Z,10.90
2022-08-23T12:58:54.918Z,11.20
2022-08-23T12:59:58.576Z,11.70
2022-08-23T13:00:54.856Z,11.30
2022-08-23T13:01:55.152Z,11.10
2022-08-23T13:02:54.884Z,11.80
2022-08-23T13:03:54.816Z,11.40
2022-08-23T13:04:54.781Z,11.40
2022-08-23T13:05:54.782Z,10.50
2022-08-23T13:06:54.773Z,10.70
2022-08-23T13:07:54.815Z,11.60
2022-08-23T13:08:54.736Z,12.60
2022-08-23T13:09:55.551Z,11.70
2022-08-23T13:10:55.865Z,12.00
2022-08-23T13:11:54.739Z,12.30
2022-08-23T13:12:54.698Z,12.00
2022-08-23T13:13:54.697Z,12.00
2022-08-23T13:14:54.682Z,12.40
2022-08-23T13:15:54.734Z,12.00
2022-08-23T13:16:54.687Z,12.00
2022-08-23T13:17:54.650Z,11.90
2022-08-23T13:18:54.659Z,11.30
2022-08-23T13:19:54.688Z,12.10
2022-08-23T13:20:54.640Z,12.00
2022-08-23T13:21:56.609Z,12.20
2022-08-23T13:22:54.770Z,12.20
2022-08-23T13:23:54.575Z,12.70
2022-08-23T13:25:17.592Z,12.80
2022-08-23T13:25:54.574Z,12.10
2022-08-23T13:26:54.587Z,12.50
2022-08-23T13:27:54.583Z,12.90
2022-08-23T13:28:54.520Z,12.80
2022-08-23T13:29:54.504Z,13.00
2022-08-23T13:30:54.563Z,12.90
2022-08-23T13:31:56.370Z,11.80
2022-08-23T13:32:54.506Z,11.90
2022-08-23T13:33:54.509Z,11.40
2022-08-23T13:34:54.509Z,11.00
2022-08-23T13:35:54.434Z,11.30
2022-08-23T13:36:54.459Z,10.90
2022-08-23T13:37:54.421Z,10.70
2022-08-23T13:38:54.433Z,10.90
2022-08-23T13:39:54.485Z,11.00
2022-08-23T13:40:54.399Z,10.90
2022-08-23T13:41:54.390Z,9.90
2022-08-23T13:42:54.355Z,11.10
2022-08-23T13:43:54.363Z,10.90
2022-08-23T13:44:54.335Z,10.80